Richmond, CA (94804)

5:02 AM PDT on September 19, 2014 (GMT -0700)
El Cerrito Hills Garden | Change Station
CLOSE
Current Station
Personal Weather Station
Location: El Cerrito, CA
Elevation: 266 ft
Nearby Weather Stations

Elev 266 ft 37.93 °N, 122.31 °W | Updated 4 minutes ago

Partly Cloudy
Partly Cloudy
61.3 °F
Feels Like 61.3 °F
N
2.0
Wind Variable Wind from SE
Gusts 5.0 mph

Today
High -- | Low -- °F
--% Chance of Precip.
Yesterday
High -- | Low -- °F
Precip. -- in
6:54 AM 7:10 PM
Waning Crescent, 19% visible
Pressure 29.90 in
Visibility 10.0 miles
Clouds Overcast 900 ft
Dew Point 60 °F
Humidity 96%
Rainfall 0.00 in
Snow Depth 3 in , 0 in , 0 in
UV 0.0 out of 12
Pollen 4.70 out of 12
PM2.5 Good
Flu Activity Not available.
METAR KOAK 191153Z 05003KT 10SM OVC009 17/16 A2990 RMK AO2 SLP124 T01720156 10189 20150 58001 $

More Conditions Fewer Conditions

Pressure 29.90 in
Visibility 10.0 miles
Clouds Overcast 900 ft
Dew Point 60 °F
Humidity 96%
Rainfall 0.00 in
Snow Depth 3 in , 0 in , 0 in
UV 0.0 out of 12
Pollen 4.70 out of 12
PM2.5 Good
Flu Activity Not available.
METAR KOAK 191153Z 05003KT 10SM OVC009 17/16 A2990 RMK AO2 SLP124 T01720156 10189 20150 58001 $

More Conditions Fewer Conditions

10-Day Weather Forecast

Almanac

Astronomy

Sep. 19, 2014 Rise Set
Actual Time 6:54 AM PDT 7:10 PM PDT
Civil Twilight 6:28 AM PDT 7:37 PM PDT
Nautical Twilight 5:57 AM PDT 8:07 PM PDT
Astronomical Twilight 5:26 AM PDT 8:39 PM PDT
Moon 2:48 AM PDT 4:39 PM PDT
Length of Visible Light 13h 08m
Length of Day
12h 16m
Tomorrow will be 2m 24s shorter.
Waning Crescent, 19% of the Moon is Illuminated
Today
Waning Crescent
Sep 24
New
Oct 1
First Quarter
Oct 8
Full
Oct 15
Last Quarter

Today's Extremes

State Highs State Lows

Community

WunderPhotos

Upload Photos

1,754,597 photos uploaded!

Nearby

Air Quality

  Air Quality AQ Index Pollutant
Yesterday Good
OZONE
Yesterday Good
PM2.5
Current Good
PM2.5
Friday Good
PM2.5
Saturday Moderate
PM2.5
Sunday Moderate
PM2.5
Monday Moderate
PM2.5
Tuesday Moderate
PM2.5

Snow Depth

Station Depth Elevation
CSS Lab 3 in 6900 ft
Blue Lakes 0 in 8000 ft
Sonora Pass 0 in 8800 ft
Ebbetts Pass 0 in 8700 ft
Leavitt Lake 1 in 9400 ft

Earthquake Activity

City Distance Mag. Time & Date
Livermore, California 37 miles 2.6 3:37 AM PDT
2014-09-19
The Geysers, California 60 miles 2.5 11:29 PM PDT
2014-09-17
Cobb, California 63 miles 2.7 1:23 PM PDT
2014-09-16
Minimum magnitude displayed is 2.5.

Coastal Water Temperatures

Place Temperature
San Francisco, CA 66.0 °F
Richmond, CA 68.0 °F
Port Chicago, CA 70.0 °F

Nearby Weather Stations